Airport Name : Norfolk Island Intl

Other Name : Norfolk Island

ICAO : YSNF

IATA : NLK

FAA :

Latitude : -29.041625

Longitude : 167.938742

Country : Norfolk Island

Local Date and Time : 17 Jun 2024 11:10

 

TAF (Terminal Aerodrome Forecast)

TAF AMD YSNF 162333Z 1700/1800 29012KT 9999 -SHRA SCT030 BECMG 1703/1704 25012KT 9999 NSW SCT035 BECMG 1710/1712 30014KT 9999 -SHRA SCT030 INTER 1700/1704 4000 SHRA SCT015 BKN025TCU INTER 1712/1800 30015G25KT 4000 SHRA SCT015 BKN025TCU

 

METAR (METeorological Aerodrome Report)

YSNF 170000Z AUTO 29010KT 9999 // SCT031 SCT085 20/14 Q1006

YSNF 162330Z AUTO 30008KT //// // SCT030 BKN096 19/15 Q1007

YSNF 162300Z AUTO 28012KT 9999 -SHRA OVC090 18/15 Q1007 RF00.0/000.0

YSNF 162230Z AUTO 30013KT 9999 -RA BKN098 OVC125 18/14 Q1007

YSNF 162200Z AUTO 30015KT 9999 // SCT029 BKN115 19/14 Q1007

YSNF 162130Z AUTO 30012KT 9999 // SCT029 BKN125 19/14 Q1007

YSNF 162100Z AUTO 30011KT 9999 // BKN027 BKN125 18/13 Q1006

YSNF 162030Z AUTO 31007KT 9999 // SCT019 SCT025 BKN028 18/15 Q1006